Bellvale, New York
Current Conditions -  °F | °C
As of 4:53 AM on Saturday 20 Dec 2014 (Local Time) from KFWN Reporting Station
Overcast Overcast  
Wind Chill: 29°   Ceiling: 2200
Heat Index: 29°   Visibility: 10mi
Dew Point: 20°   Wind: 3mph
Humidity: 69%   Direction: 350°N
Pressure: 30.22"   Gusts: NA
Location:  41.25°N, 74.31°W
Report Text: KFWN 200953Z AUTO 35003KT 10SM OVC022 M02/M07 A3022 RMK AO2 SLP237 T10171067
Loading
Personal Weather Stations






























Interactive Weather Map New forecast layout! Learn more

10-Day Weather Forecast

Advertisements
Track Severe Weather on mobile